createdAt,value
2024-04-13T00:00:59.159Z,7.35
2024-04-13T00:03:49.581Z,8.90
2024-04-13T00:06:42.619Z,6.90
2024-04-13T00:09:34.512Z,8.98
2024-04-13T00:12:22.154Z,9.18
2024-04-13T00:15:12.985Z,7.15
2024-04-13T00:18:01.163Z,5.30
2024-04-13T00:20:51.461Z,5.57
2024-04-13T00:23:41.800Z,5.30
2024-04-13T00:26:33.809Z,7.32
2024-04-13T00:29:21.824Z,8.85
2024-04-13T00:32:12.269Z,7.40
2024-04-13T00:34:59.901Z,6.25
2024-04-13T00:37:50.063Z,6.90
2024-04-13T00:40:40.355Z,8.57
2024-04-13T00:43:30.742Z,6.43
2024-04-13T00:46:24.879Z,6.07
2024-04-13T00:49:20.917Z,4.93
2024-04-13T00:52:12.593Z,8.20
2024-04-13T00:55:03.442Z,7.40
2024-04-13T00:57:53.916Z,6.93
2024-04-13T01:00:47.512Z,5.93
2024-04-13T01:03:37.102Z,5.60
2024-04-13T01:06:30.014Z,7.28
2024-04-13T01:09:17.907Z,9.50
2024-04-13T01:12:11.376Z,4.03
2024-04-13T01:15:02.233Z,8.43
2024-04-13T01:17:52.559Z,6.80
2024-04-13T01:20:41.160Z,8.13
2024-04-13T01:23:34.019Z,5.70
2024-04-13T01:26:24.946Z,6.47
2024-04-13T01:29:15.152Z,7.05
2024-04-13T01:32:02.819Z,5.82
2024-04-13T01:34:53.195Z,6.50
2024-04-13T01:37:42.702Z,5.72
2024-04-13T01:40:33.067Z,9.73
2024-04-13T01:43:23.527Z,5.95
2024-04-13T01:46:13.899Z,5.13
2024-04-13T01:49:01.670Z,5.15
2024-04-13T01:51:52.073Z,4.60
2024-04-13T01:54:39.702Z,5.93
2024-04-13T01:57:30.190Z,5.97
2024-04-13T02:00:23.625Z,5.47
2024-04-13T02:03:12.448Z,5.90
2024-04-13T02:06:06.266Z,8.60
2024-04-13T02:08:54.673Z,6.68
2024-04-13T02:11:45.076Z,4.45
2024-04-13T02:14:32.950Z,5.07
2024-04-13T02:17:25.884Z,6.10
2024-04-13T02:20:17.298Z,4.38
2024-04-13T02:23:09.162Z,5.72
2024-04-13T02:25:58.780Z,5.43
2024-04-13T02:28:49.104Z,6.03
2024-04-13T02:31:37.550Z,6.05
2024-04-13T02:34:30.497Z,4.88
2024-04-13T02:37:18.262Z,7.63
2024-04-13T02:40:10.593Z,4.03
2024-04-13T02:42:58.933Z,4.60
2024-04-13T02:45:49.271Z,4.95
2024-04-13T02:48:38.053Z,7.30
2024-04-13T02:51:31.553Z,4.15
2024-04-13T02:54:19.300Z,5.63
2024-04-13T02:57:09.523Z,4.97
2024-04-13T02:59:59.785Z,9.63
2024-04-13T03:02:50.111Z,6.43
2024-04-13T03:05:38.818Z,5.82
2024-04-13T03:08:32.355Z,3.55
2024-04-13T03:11:22.201Z,6.38
2024-04-13T03:14:12.787Z,5.47
2024-04-13T03:17:01.176Z,4.97
2024-04-13T03:19:51.520Z,4.82
2024-04-13T03:22:39.223Z,7.13
2024-04-13T03:25:33.224Z,4.13
2024-04-13T03:28:24.841Z,5.05
2024-04-13T03:31:15.135Z,6.60
2024-04-13T03:34:04.422Z,9.65
2024-04-13T03:36:54.719Z,7.68
2024-04-13T03:39:45.179Z,5.38
2024-04-13T03:42:38.768Z,6.20
2024-04-13T03:45:26.528Z,6.28
2024-04-13T03:48:17.038Z,5.50
2024-04-13T03:51:04.996Z,4.63
2024-04-13T03:53:55.263Z,5.35
2024-04-13T03:56:42.986Z,6.93
2024-04-13T03:59:35.881Z,9.75
2024-04-13T04:02:23.654Z,6.07
2024-04-13T04:05:13.925Z,6.72
2024-04-13T04:08:01.578Z,8.55
2024-04-13T04:10:51.993Z,11.65
2024-04-13T04:13:39.709Z,7.63
2024-04-13T04:16:32.814Z,8.88
2024-04-13T04:19:20.495Z,8.65
2024-04-13T04:22:11.207Z,7.80
2024-04-13T04:24:58.945Z,7.82
2024-04-13T04:27:49.806Z,7.50
2024-04-13T04:30:37.492Z,8.60
2024-04-13T04:33:30.567Z,7.35
2024-04-13T04:36:18.797Z,9.23
2024-04-13T04:39:10.180Z,7.40
2024-04-13T04:41:57.935Z,5.43
2024-04-13T04:44:48.308Z,6.55
2024-04-13T04:47:36.286Z,6.35
2024-04-13T04:50:29.258Z,7.63
2024-04-13T04:53:16.869Z,8.90
2024-04-13T04:56:07.674Z,8.88
2024-04-13T04:58:57.339Z,11.32
2024-04-13T05:01:47.608Z,8.98
2024-04-13T05:04:35.298Z,11.25
2024-04-13T05:07:28.873Z,9.05
2024-04-13T05:10:16.741Z,11.52
2024-04-13T05:13:08.079Z,11.85
2024-04-13T05:15:55.780Z,9.23
2024-04-13T05:18:46.195Z,9.55
2024-04-13T05:21:33.909Z,10.20
2024-04-13T05:24:26.855Z,9.02
2024-04-13T05:27:14.664Z,7.55
2024-04-13T05:30:06.307Z,11.65
2024-04-13T05:32:54.232Z,12.15
2024-04-13T05:35:44.567Z,9.77
2024-04-13T05:38:32.224Z,9.60
2024-04-13T05:41:25.146Z,12.77
2024-04-13T05:44:12.755Z,10.63
2024-04-13T05:47:03.066Z,9.50
2024-04-13T05:49:52.448Z,12.45
2024-04-13T05:52:43.762Z,12.45
2024-04-13T05:55:31.459Z,9.85
2024-04-13T05:58:24.399Z,15.73
2024-04-13T06:01:12.004Z,10.38
2024-04-13T06:04:02.366Z,9.95
2024-04-13T06:06:52.770Z,10.63
2024-04-13T06:09:40.586Z,10.18
2024-04-13T06:12:31.000Z,10.23
2024-04-13T06:15:21.568Z,15.13
2024-04-13T06:18:12.136Z,11.43
2024-04-13T06:21:03.773Z,10.38
2024-04-13T06:23:51.984Z,8.48
2024-04-13T06:26:42.247Z,6.97
2024-04-13T06:29:29.947Z,9.32
2024-04-13T06:32:23.365Z,8.48
2024-04-13T06:35:11.154Z,5.68
2024-04-13T06:38:01.773Z,7.45
2024-04-13T06:40:49.381Z,6.93
2024-04-13T06:43:39.640Z,6.05
2024-04-13T06:46:27.721Z,7.65
2024-04-13T06:49:20.780Z,4.05
2024-04-13T06:52:08.507Z,6.43
2024-04-13T06:54:58.707Z,7.78
2024-04-13T06:57:46.771Z,5.30
2024-04-13T07:00:37.323Z,6.57
2024-04-13T07:03:25.474Z,6.93
2024-04-13T07:06:18.843Z,6.55
2024-04-13T07:09:06.854Z,9.13
2024-04-13T07:11:57.523Z,4.85
2024-04-13T07:14:48.131Z,6.15
2024-04-13T07:17:38.784Z,7.05
2024-04-13T07:20:26.778Z,5.05
2024-04-13T07:23:19.751Z,6.20
2024-04-13T07:26:09.988Z,9.50
2024-04-13T07:29:00.894Z,9.10
2024-04-13T07:31:48.552Z,5.32
2024-04-13T07:34:41.487Z,7.63
2024-04-13T07:37:29.193Z,7.00
2024-04-13T07:40:22.188Z,6.22
2024-04-13T07:43:10.066Z,6.10
2024-04-13T07:46:00.769Z,6.95
2024-04-13T07:48:48.716Z,8.15
2024-04-13T07:51:41.706Z,7.53
2024-04-13T07:54:32.217Z,6.97
2024-04-13T07:57:23.057Z,8.82
2024-04-13T08:00:14.134Z,7.45
2024-04-13T08:03:02.452Z,5.68
2024-04-13T08:05:53.047Z,8.25
2024-04-13T08:08:43.713Z,8.48
2024-04-13T08:11:31.643Z,7.50
2024-04-13T08:14:24.983Z,7.30
2024-04-13T08:17:12.992Z,8.35
2024-04-13T08:20:05.489Z,12.82
2024-04-13T08:22:53.353Z,8.57
2024-04-13T08:25:43.893Z,11.45
2024-04-13T08:28:31.805Z,11.82
2024-04-13T08:31:25.039Z,15.63
2024-04-13T08:34:14.898Z,14.07
2024-04-13T08:37:05.478Z,13.43
2024-04-13T08:39:53.419Z,10.70
2024-04-13T08:42:45.564Z,10.50
2024-04-13T08:45:33.999Z,12.52
2024-04-13T08:48:27.323Z,12.35
2024-04-13T08:51:15.510Z,15.45
2024-04-13T08:54:06.541Z,14.68
2024-04-13T08:56:54.523Z,11.95
2024-04-13T08:59:45.386Z,11.77
2024-04-13T09:02:34.612Z,15.23
2024-04-13T09:05:29.376Z,12.05
2024-04-13T09:08:17.812Z,26.17
2024-04-13T09:11:10.225Z,13.38
2024-04-13T09:13:58.265Z,10.50
2024-04-13T09:16:48.919Z,10.95
2024-04-13T09:19:36.786Z,13.35
2024-04-13T09:22:31.770Z,15.00
2024-04-13T09:25:22.905Z,15.70
2024-04-13T09:28:14.034Z,12.57
2024-04-13T09:31:01.770Z,13.15
2024-04-13T09:33:52.956Z,13.18
2024-04-13T09:36:40.675Z,14.75
2024-04-13T09:39:33.691Z,14.63
2024-04-13T09:42:25.872Z,11.88
2024-04-13T09:45:16.486Z,11.85
2024-04-13T09:48:04.469Z,11.60
2024-04-13T09:50:54.791Z,12.48
2024-04-13T09:53:43.120Z,9.52
2024-04-13T09:56:37.116Z,9.93
2024-04-13T09:59:25.250Z,13.38
2024-04-13T10:02:15.697Z,9.95
2024-04-13T10:05:03.827Z,10.23
2024-04-13T10:07:55.214Z,13.30
2024-04-13T10:10:45.908Z,12.23
2024-04-13T10:13:42.784Z,10.50
2024-04-13T10:16:31.421Z,14.68
2024-04-13T10:19:21.720Z,11.90
2024-04-13T10:22:15.822Z,9.63
2024-04-13T10:25:17.893Z,10.90
2024-04-13T10:28:07.389Z,14.52
2024-04-13T10:31:01.001Z,10.25
2024-04-13T10:33:54.984Z,11.80
2024-04-13T10:36:47.323Z,12.45
2024-04-13T10:39:36.345Z,6.55
2024-04-13T10:42:37.292Z,8.02
2024-04-13T10:45:26.827Z,8.82
2024-04-13T10:48:21.672Z,8.85
2024-04-13T10:51:13.893Z,10.35
2024-04-13T10:54:04.658Z,10.88
2024-04-13T10:56:59.518Z,8.23
2024-04-13T10:59:53.622Z,10.00
2024-04-13T11:02:41.359Z,10.98
2024-04-13T11:05:34.841Z,9.88
2024-04-13T11:08:24.887Z,6.70
2024-04-13T11:11:15.346Z,9.88
2024-04-13T11:14:03.022Z,6.07
2024-04-13T11:16:53.248Z,8.57
2024-04-13T11:19:41.288Z,6.70
2024-04-13T11:22:34.463Z,8.80
2024-04-13T11:25:25.213Z,6.90
2024-04-13T11:28:13.136Z,5.80
2024-04-13T11:31:03.877Z,6.75
2024-04-13T11:33:51.890Z,6.75
2024-04-13T11:36:42.421Z,6.93
2024-04-13T11:39:34.342Z,4.20
2024-04-13T11:42:31.737Z,3.95
2024-04-13T11:45:27.178Z,6.05
2024-04-13T11:48:18.346Z,5.63
2024-04-13T11:51:10.332Z,8.63
2024-04-13T11:54:01.337Z,5.93
2024-04-13T11:56:52.349Z,5.90
2024-04-13T11:59:43.094Z,3.85
2024-04-13T12:02:33.744Z,6.82
2024-04-13T12:05:21.918Z,6.50
2024-04-13T12:08:13.349Z,4.03
2024-04-13T12:11:01.396Z,6.22
2024-04-13T12:13:54.662Z,7.25
2024-04-13T12:16:45.589Z,4.47
2024-04-13T12:19:36.253Z,5.88
2024-04-13T12:22:24.239Z,6.97
2024-04-13T12:25:14.936Z,5.10
2024-04-13T12:28:03.604Z,4.68
2024-04-13T12:30:56.953Z,6.13
2024-04-13T12:33:45.065Z,5.75
2024-04-13T12:36:36.930Z,4.95
2024-04-13T12:39:25.443Z,6.00
2024-04-13T12:42:16.078Z,4.15
2024-04-13T12:45:04.274Z,4.40
2024-04-13T12:47:57.585Z,4.13
2024-04-13T12:50:46.231Z,5.43
2024-04-13T12:53:36.765Z,3.90
2024-04-13T12:56:25.289Z,5.82
2024-04-13T12:59:15.776Z,3.67
2024-04-13T13:02:03.945Z,5.40
2024-04-13T13:04:57.093Z,3.05
2024-04-13T13:07:45.038Z,5.07
2024-04-13T13:10:35.724Z,6.03
2024-04-13T13:13:23.634Z,5.38
2024-04-13T13:16:14.381Z,6.10
2024-04-13T13:19:02.280Z,4.75
2024-04-13T13:21:55.413Z,5.47
2024-04-13T13:24:43.607Z,5.78
2024-04-13T13:27:34.304Z,2.85
2024-04-13T13:30:22.336Z,2.70
2024-04-13T13:33:13.633Z,4.72
2024-04-13T13:36:04.147Z,5.10
2024-04-13T13:38:54.658Z,3.03
2024-04-13T13:41:45.225Z,3.55
2024-04-13T13:44:33.316Z,3.17
2024-04-13T13:47:23.871Z,6.43
2024-04-13T13:50:11.880Z,5.53
2024-04-13T13:53:02.552Z,4.65
2024-04-13T13:55:53.092Z,5.65
2024-04-13T13:58:43.888Z,2.50
2024-04-13T14:01:34.894Z,3.10
2024-04-13T14:04:25.592Z,2.50
2024-04-13T14:07:13.838Z,3.45
2024-04-13T14:10:04.800Z,3.47
2024-04-13T14:12:55.545Z,5.75
2024-04-13T14:15:46.108Z,6.45
2024-04-13T14:18:34.077Z,4.90
2024-04-13T14:21:27.217Z,6.75
2024-04-13T14:24:15.218Z,4.97
2024-04-13T14:27:05.829Z,3.85
2024-04-13T14:29:56.392Z,2.65
2024-04-13T14:32:47.067Z,5.32
2024-04-13T14:35:35.232Z,4.20
2024-04-13T14:38:26.003Z,2.95
2024-04-13T14:41:13.893Z,5.30
2024-04-13T14:44:04.427Z,3.42
2024-04-13T14:46:55.022Z,2.78
2024-04-13T14:49:45.519Z,5.63
2024-04-13T14:52:36.026Z,4.75
2024-04-13T14:55:23.864Z,5.25
2024-04-13T14:58:14.396Z,4.85
2024-04-13T15:01:06.804Z,5.00
2024-04-13T15:03:59.976Z,3.55
2024-04-13T15:06:47.845Z,5.60
2024-04-13T15:09:38.635Z,4.82
2024-04-13T15:12:26.394Z,5.15
2024-04-13T15:15:18.642Z,5.57
2024-04-13T15:18:07.672Z,4.07
2024-04-13T15:21:00.577Z,3.28
2024-04-13T15:23:49.604Z,3.78
2024-04-13T15:26:39.987Z,6.80
2024-04-13T15:29:27.951Z,3.95
2024-04-13T15:32:18.690Z,6.80
2024-04-13T15:35:07.238Z,2.30
2024-04-13T15:38:01.052Z,3.22
2024-04-13T15:40:49.545Z,4.03
2024-04-13T15:43:39.730Z,3.40
2024-04-13T15:46:29.310Z,4.10
2024-04-13T15:49:22.127Z,5.85
2024-04-13T15:52:10.008Z,2.35
2024-04-13T15:55:03.275Z,2.85
2024-04-13T15:57:51.432Z,3.33
2024-04-13T16:00:42.457Z,3.03
2024-04-13T16:03:30.465Z,4.18
2024-04-13T16:06:21.133Z,3.33
2024-04-13T16:09:09.098Z,3.60
2024-04-13T16:12:02.326Z,3.30
2024-04-13T16:14:50.143Z,3.20
2024-04-13T16:17:40.754Z,3.83
2024-04-13T16:20:28.707Z,3.75
2024-04-13T16:23:19.181Z,4.75
2024-04-13T16:26:07.137Z,4.60
2024-04-13T16:29:00.262Z,5.65
2024-04-13T16:31:49.924Z,4.18
2024-04-13T16:34:40.546Z,3.80
2024-04-13T16:37:28.451Z,3.72
2024-04-13T16:40:19.024Z,6.13
2024-04-13T16:43:06.959Z,9.20
2024-04-13T16:46:00.160Z,6.80
2024-04-13T16:48:48.333Z,4.68
2024-04-13T16:51:41.539Z,4.25
2024-04-13T16:54:30.286Z,4.70
2024-04-13T16:57:20.915Z,2.47
2024-04-13T17:00:10.410Z,5.18
2024-04-13T17:03:03.643Z,5.05
2024-04-13T17:05:51.662Z,4.40
2024-04-13T17:08:42.181Z,4.18
2024-04-13T17:11:30.095Z,5.95
2024-04-13T17:14:20.601Z,3.90
2024-04-13T17:17:08.521Z,5.13
2024-04-13T17:20:01.616Z,7.50
2024-04-13T17:22:49.587Z,4.72
2024-04-13T17:25:40.390Z,4.75
2024-04-13T17:28:28.364Z,4.25
2024-04-13T17:31:18.923Z,5.63
2024-04-13T17:34:06.826Z,6.75
2024-04-13T17:37:00.214Z,4.90
2024-04-13T17:39:48.144Z,4.25
2024-04-13T17:42:38.706Z,5.68
2024-04-13T17:45:26.700Z,5.15
2024-04-13T17:48:18.760Z,6.15
2024-04-13T17:51:06.828Z,7.85
2024-04-13T17:53:59.970Z,7.35
2024-04-13T17:56:47.845Z,4.57
2024-04-13T17:59:39.426Z,4.18
2024-04-13T18:02:27.307Z,5.88
2024-04-13T18:05:17.948Z,10.45
2024-04-13T18:08:06.173Z,7.55
2024-04-13T18:10:59.426Z,5.55
2024-04-13T18:13:51.857Z,6.30
2024-04-13T18:16:39.826Z,6.95
2024-04-13T18:19:30.619Z,7.07
2024-04-13T18:22:18.512Z,6.68
2024-04-13T18:25:09.352Z,6.97
2024-04-13T18:27:59.895Z,6.45
2024-04-13T18:30:50.640Z,5.90
2024-04-13T18:33:38.806Z,6.00
2024-04-13T18:36:29.399Z,5.93
2024-04-13T18:39:19.500Z,6.88
2024-04-13T18:42:10.204Z,4.40
2024-04-13T18:45:00.904Z,6.80
2024-04-13T18:47:51.543Z,5.25
2024-04-13T18:50:39.968Z,6.95
2024-04-13T18:53:31.963Z,5.20
2024-04-13T18:56:19.840Z,5.32
2024-04-13T18:59:10.303Z,6.00
2024-04-13T19:02:02.089Z,7.40
2024-04-13T19:04:52.622Z,5.05
2024-04-13T19:07:40.560Z,6.60
2024-04-13T19:10:31.322Z,6.50
2024-04-13T19:13:21.938Z,6.38
2024-04-13T19:16:11.155Z,7.95
2024-04-13T19:19:04.706Z,5.60
2024-04-13T19:21:52.781Z,12.82
2024-04-13T19:24:43.455Z,9.60
2024-04-13T19:27:31.467Z,7.65
2024-04-13T19:30:22.045Z,7.53
2024-04-13T19:33:09.878Z,7.63
2024-04-13T19:36:02.959Z,6.88
2024-04-13T19:38:50.836Z,8.27
2024-04-13T19:41:44.136Z,9.90
2024-04-13T19:44:32.347Z,8.68
2024-04-13T19:47:22.949Z,9.52
2024-04-13T19:50:11.094Z,9.85
2024-04-13T19:53:07.539Z,7.10
2024-04-13T19:55:55.570Z,12.00
2024-04-13T19:58:46.291Z,8.65
2024-04-13T20:01:34.376Z,10.02
2024-04-13T20:04:25.149Z,10.73
2024-04-13T20:07:13.189Z,12.88
2024-04-13T20:10:06.540Z,11.70
2024-04-13T20:12:57.216Z,11.40
2024-04-13T20:16:04.169Z,11.70
2024-04-13T20:18:54.902Z,8.88
2024-04-13T20:21:45.525Z,8.43
2024-04-13T20:24:36.151Z,8.50
2024-04-13T20:27:29.466Z,10.57
2024-04-13T20:30:20.144Z,16.13
2024-04-13T20:33:08.348Z,17.83
2024-04-13T20:35:59.126Z,13.45
2024-04-13T20:38:47.605Z,10.88
2024-04-13T20:41:38.293Z,12.25
2024-04-13T20:44:31.600Z,12.05
2024-04-13T20:47:22.329Z,12.13
2024-04-13T20:50:10.349Z,12.93
2024-04-13T20:53:02.147Z,11.07
2024-04-13T20:55:50.554Z,15.65
2024-04-13T20:58:42.052Z,11.45
2024-04-13T21:01:32.736Z,12.48
2024-04-13T21:04:23.664Z,11.05
2024-04-13T21:07:11.937Z,9.30
2024-04-13T21:10:02.593Z,14.75
2024-04-13T21:12:53.328Z,15.30
2024-04-13T21:15:41.521Z,12.70
2024-04-13T21:18:34.839Z,9.63
2024-04-13T21:21:23.141Z,14.05
2024-04-13T21:24:13.719Z,11.15
2024-04-13T21:27:01.563Z,8.88
2024-04-13T21:29:52.304Z,7.05
2024-04-13T21:32:43.960Z,7.75
2024-04-13T21:35:34.578Z,15.52
2024-04-13T21:38:25.194Z,7.53
2024-04-13T21:41:13.099Z,7.32
2024-04-13T21:44:04.597Z,7.03
2024-04-13T21:46:52.518Z,7.35
2024-04-13T21:49:43.069Z,13.65
2024-04-13T21:52:33.696Z,9.15
2024-04-13T21:55:24.251Z,10.73
2024-04-13T21:58:12.293Z,9.35
2024-04-13T22:01:04.327Z,7.20
2024-04-13T22:03:53.208Z,7.90
2024-04-13T22:06:44.315Z,13.35
2024-04-13T22:09:35.023Z,8.63
2024-04-13T22:12:25.638Z,13.60
2024-04-13T22:15:13.823Z,9.35
2024-04-13T22:18:04.705Z,10.43
2024-04-13T22:20:54.531Z,11.38
2024-04-13T22:23:45.204Z,11.75
2024-04-13T22:26:35.735Z,14.30
2024-04-13T22:29:29.206Z,9.45
2024-04-13T22:32:17.175Z,10.50
2024-04-13T22:35:23.815Z,8.73
2024-04-13T22:38:12.088Z,10.20
2024-04-13T22:41:02.644Z,13.25
2024-04-13T22:43:55.836Z,8.10
2024-04-13T22:46:44.036Z,10.57
2024-04-13T22:49:34.691Z,9.65
2024-04-13T22:52:22.695Z,10.32
2024-04-13T22:55:13.686Z,9.75
2024-04-13T22:58:01.686Z,9.63
2024-04-13T23:00:57.363Z,9.43
2024-04-13T23:03:45.566Z,10.02
2024-04-13T23:06:36.552Z,10.10
2024-04-13T23:09:24.563Z,8.75
2024-04-13T23:12:17.646Z,9.55
2024-04-13T23:15:06.081Z,7.30
2024-04-13T23:17:59.383Z,10.23
2024-04-13T23:20:47.540Z,9.18
2024-04-13T23:23:38.073Z,7.70
2024-04-13T23:26:26.596Z,9.15
2024-04-13T23:29:17.097Z,6.82
2024-04-13T23:32:05.162Z,7.57
2024-04-13T23:34:58.330Z,8.65
2024-04-13T23:37:46.186Z,7.07
2024-04-13T23:40:36.727Z,8.07
2024-04-13T23:43:24.740Z,9.70
2024-04-13T23:46:15.439Z,7.03
2024-04-13T23:49:03.365Z,6.32
2024-04-13T23:51:56.640Z,8.30
2024-04-13T23:54:44.548Z,6.32
2024-04-13T23:57:35.423Z,9.02
